createdAt,value
2023-03-31T00:01:53.018Z,99983.72
2023-03-31T00:04:24.356Z,99976.00
2023-03-31T00:06:54.277Z,99970.47
2023-03-31T00:09:22.105Z,99961.38
2023-03-31T00:11:49.731Z,99966.06
2023-03-31T00:14:18.466Z,99964.38
2023-03-31T00:16:45.630Z,99962.13
2023-03-31T00:19:20.648Z,99957.69
2023-03-31T00:21:48.754Z,99951.00
2023-03-31T00:24:16.351Z,99944.59
2023-03-31T00:26:42.948Z,99928.53
2023-03-31T00:29:11.628Z,99927.69
2023-03-31T00:31:39.728Z,99923.84
2023-03-31T00:34:06.858Z,99922.47
2023-03-31T00:36:36.810Z,99915.31
2023-03-31T00:39:08.927Z,99903.41
2023-03-31T00:41:37.124Z,99911.69
2023-03-31T00:44:18.784Z,99900.88
2023-03-31T00:46:54.089Z,99903.31
2023-03-31T00:49:48.295Z,99899.41
2023-03-31T00:52:23.448Z,99894.72
2023-03-31T00:55:02.605Z,99884.41
2023-03-31T00:57:32.734Z,99881.66
2023-03-31T01:00:09.892Z,99871.09
2023-03-31T01:02:41.394Z,99865.25
2023-03-31T01:05:08.949Z,99860.56
2023-03-31T01:07:43.507Z,99866.09
2023-03-31T01:10:11.131Z,99863.34
2023-03-31T01:12:41.034Z,99862.72
2023-03-31T01:15:09.113Z,99859.41
2023-03-31T01:17:37.095Z,99867.03
2023-03-31T01:20:33.370Z,99858.66
2023-03-31T01:23:18.399Z,99852.41
2023-03-31T01:25:56.309Z,99840.19
2023-03-31T01:28:59.739Z,99831.31
2023-03-31T01:31:51.109Z,99816.28
2023-03-31T01:34:57.857Z,99801.88
2023-03-31T01:38:01.718Z,99793.88
2023-03-31T01:40:47.264Z,99790.00
2023-03-31T01:43:48.752Z,99797.19
2023-03-31T01:46:28.878Z,99790.84
2023-03-31T01:49:07.138Z,99777.63
2023-03-31T01:51:56.693Z,99790.94
2023-03-31T01:54:33.048Z,99779.38
2023-03-31T01:57:06.236Z,99781.06
2023-03-31T01:59:42.331Z,99779.13
2023-03-31T02:02:19.888Z,99777.78
2023-03-31T02:04:51.642Z,99771.19
2023-03-31T02:07:27.293Z,99765.38
2023-03-31T02:09:58.813Z,99758.19
2023-03-31T02:12:27.536Z,99751.25
2023-03-31T02:14:56.164Z,99750.16
2023-03-31T02:17:32.850Z,99745.16
2023-03-31T02:20:06.256Z,99734.63
2023-03-31T02:22:37.656Z,99726.34
2023-03-31T02:25:06.464Z,99718.06
2023-03-31T02:27:42.152Z,99710.34
2023-03-31T02:30:10.088Z,99690.72
2023-03-31T02:32:40.866Z,99679.44
2023-03-31T02:35:15.736Z,99665.09
2023-03-31T02:37:43.504Z,99651.31
2023-03-31T02:40:18.292Z,99638.00
2023-03-31T02:42:44.959Z,99630.53
2023-03-31T02:45:49.560Z,99657.91
2023-03-31T02:48:18.736Z,99657.34
2023-03-31T02:51:02.549Z,99639.66
2023-03-31T02:53:56.068Z,99616.50
2023-03-31T02:56:50.002Z,99607.66
2023-03-31T02:59:34.679Z,99598.78
2023-03-31T03:02:04.119Z,99596.00
2023-03-31T03:04:42.653Z,99594.34
2023-03-31T03:07:35.340Z,99602.28
2023-03-31T03:10:16.405Z,99581.06
2023-03-31T03:12:52.539Z,99578.28
2023-03-31T03:15:30.963Z,99555.13
2023-03-31T03:17:58.561Z,99552.38
2023-03-31T03:20:25.667Z,99560.66
2023-03-31T03:22:52.137Z,99571.69
2023-03-31T03:25:20.441Z,99571.09
2023-03-31T03:27:46.971Z,99549.59
2023-03-31T03:30:14.309Z,99546.31
2023-03-31T03:32:41.705Z,99545.25
2023-03-31T03:35:08.944Z,99538.63
2023-03-31T03:37:35.679Z,99530.34
2023-03-31T03:40:03.829Z,99525.91
2023-03-31T03:42:30.331Z,99536.66
2023-03-31T03:44:56.737Z,99532.78
2023-03-31T03:47:23.235Z,99530.53
2023-03-31T03:49:50.528Z,99522.00
2023-03-31T03:52:17.062Z,99519.78
2023-03-31T03:54:43.479Z,99522.53
2023-03-31T03:57:10.310Z,99525.22
2023-03-31T03:59:36.765Z,99528.75
2023-03-31T04:02:03.320Z,99524.59
2023-03-31T04:04:29.734Z,99519.63
2023-03-31T04:06:56.296Z,99510.56
2023-03-31T04:09:22.866Z,99504.19
2023-03-31T04:11:49.317Z,99508.88
2023-03-31T04:14:15.871Z,99508.56
2023-03-31T04:16:42.686Z,99506.88
2023-03-31T04:19:11.466Z,99503.03
2023-03-31T04:21:44.939Z,99490.06
2023-03-31T04:24:16.126Z,99482.88
2023-03-31T04:26:45.529Z,99479.28
2023-03-31T04:29:13.603Z,99476.28
2023-03-31T04:31:44.044Z,99468.25
2023-03-31T04:34:13.432Z,99456.91
2023-03-31T04:36:48.508Z,99451.38
2023-03-31T04:39:17.085Z,99445.03
2023-03-31T04:41:44.523Z,99435.34
2023-03-31T04:44:11.181Z,99436.19
2023-03-31T04:46:37.783Z,99436.19
2023-03-31T04:49:05.643Z,99426.75
2023-03-31T04:51:32.151Z,99428.69
2023-03-31T04:53:58.583Z,99414.06
2023-03-31T04:56:25.021Z,99417.91
2023-03-31T04:58:51.494Z,99409.59
2023-03-31T05:01:20.848Z,99414.50
2023-03-31T05:03:47.991Z,99417.25
2023-03-31T05:06:16.392Z,99417.72
2023-03-31T05:08:43.631Z,99415.50
2023-03-31T05:11:10.933Z,99414.34
2023-03-31T05:13:37.288Z,99407.94
2023-03-31T05:16:12.395Z,99398.78
2023-03-31T05:18:38.864Z,99388.22
2023-03-31T05:21:17.433Z,99369.72
2023-03-31T05:23:44.757Z,99361.13
2023-03-31T05:26:11.942Z,99354.72
2023-03-31T05:28:38.423Z,99348.91
2023-03-31T05:31:06.888Z,99354.94
2023-03-31T05:33:34.313Z,99348.19
2023-03-31T05:36:01.131Z,99337.75
2023-03-31T05:38:31.644Z,99330.88
2023-03-31T05:40:58.387Z,99338.25
2023-03-31T05:43:25.107Z,99343.19
2023-03-31T05:45:51.719Z,99341.16
2023-03-31T05:48:18.217Z,99358.44
2023-03-31T05:50:44.868Z,99366.06
2023-03-31T05:53:11.290Z,99331.34
2023-03-31T05:55:38.654Z,99305.47
2023-03-31T05:58:06.777Z,99281.25
2023-03-31T06:00:33.229Z,99256.72
2023-03-31T06:02:59.677Z,99272.16
2023-03-31T06:05:31.099Z,99277.94
2023-03-31T06:07:57.708Z,99269.72
2023-03-31T06:10:24.173Z,99261.50
2023-03-31T06:12:50.874Z,99261.31
2023-03-31T06:15:17.805Z,99259.44
2023-03-31T06:17:44.268Z,99269.31
2023-03-31T06:20:26.588Z,99282.03
2023-03-31T06:22:54.094Z,99280.03
2023-03-31T06:25:20.929Z,99272.63
2023-03-31T06:27:47.485Z,99266.59
2023-03-31T06:30:14.094Z,99268.28
2023-03-31T06:32:40.640Z,99266.59
2023-03-31T06:35:07.389Z,99256.09
2023-03-31T06:37:33.796Z,99253.94
2023-03-31T06:40:00.228Z,99246.22
2023-03-31T06:42:26.675Z,99241.31
2023-03-31T06:44:53.084Z,99237.19
2023-03-31T06:47:19.602Z,99227.56
2023-03-31T06:49:46.222Z,99219.56
2023-03-31T06:52:12.742Z,99219.56
2023-03-31T06:54:39.270Z,99220.41
2023-03-31T06:57:05.837Z,99221.50
2023-03-31T06:59:32.715Z,99221.72
2023-03-31T07:01:59.193Z,99217.59
2023-03-31T07:04:25.704Z,99214.84
2023-03-31T07:06:52.175Z,99204.13
2023-03-31T07:09:18.824Z,99210.50
2023-03-31T07:11:45.274Z,99206.09
2023-03-31T07:14:11.906Z,99205.56
2023-03-31T07:16:38.420Z,99212.75
2023-03-31T07:19:07.085Z,99215.53
2023-03-31T07:21:34.140Z,99201.22
2023-03-31T07:24:00.665Z,99199.41
2023-03-31T07:26:27.723Z,99209.66
2023-03-31T07:28:56.662Z,99217.94
2023-03-31T07:31:23.800Z,99197.56
2023-03-31T07:33:50.399Z,99186.59
2023-03-31T07:36:17.436Z,99196.59
2023-03-31T07:38:47.002Z,99197.19
2023-03-31T07:41:15.350Z,99188.94
2023-03-31T07:43:41.832Z,99184.00
2023-03-31T07:46:15.052Z,99190.66
2023-03-31T07:48:41.477Z,99173.06
2023-03-31T07:51:08.062Z,99175.31
2023-03-31T07:53:34.726Z,99174.78
2023-03-31T07:56:01.345Z,99164.91
2023-03-31T07:58:28.217Z,99174.63
2023-03-31T08:00:54.782Z,99172.72
2023-03-31T08:03:21.379Z,99174.41
2023-03-31T08:05:48.929Z,99174.69
2023-03-31T08:08:16.354Z,99163.41
2023-03-31T08:10:43.143Z,99163.41
2023-03-31T08:13:09.554Z,99173.13
2023-03-31T08:15:35.968Z,99160.94
2023-03-31T08:18:03.811Z,99154.06
2023-03-31T08:20:30.619Z,99154.34
2023-03-31T08:22:57.460Z,99145.22
2023-03-31T08:25:24.001Z,99156.03
2023-03-31T08:27:51.229Z,99156.88
2023-03-31T08:30:19.576Z,99150.78
2023-03-31T08:32:46.431Z,99149.69
2023-03-31T08:35:12.909Z,99160.19
2023-03-31T08:37:39.866Z,99158.53
2023-03-31T08:40:09.533Z,99150.78
2023-03-31T08:42:43.719Z,99147.50
2023-03-31T08:45:31.939Z,99139.78
2023-03-31T08:48:08.037Z,99140.31
2023-03-31T08:50:41.069Z,99143.09
2023-03-31T08:53:26.315Z,99136.47
2023-03-31T08:55:55.052Z,99140.34
2023-03-31T08:58:32.396Z,99120.16
2023-03-31T09:01:21.301Z,99124.31
2023-03-31T09:04:21.959Z,99121.56
2023-03-31T09:06:51.400Z,99119.88
2023-03-31T09:09:43.173Z,99116.53
2023-03-31T09:12:28.598Z,99115.19
2023-03-31T09:15:02.891Z,99115.44
2023-03-31T09:17:33.071Z,99104.09
2023-03-31T09:20:23.281Z,99100.50
2023-03-31T09:22:55.860Z,99090.53
2023-03-31T09:25:34.202Z,99093.88
2023-03-31T09:28:03.628Z,99092.72
2023-03-31T09:30:34.049Z,99084.41
2023-03-31T09:33:19.777Z,99093.03
2023-03-31T09:35:46.836Z,99097.97
2023-03-31T09:38:15.774Z,99113.72
2023-03-31T09:40:43.101Z,99088.28
2023-03-31T09:43:22.786Z,99087.97
2023-03-31T09:46:05.430Z,99087.16
2023-03-31T09:48:36.492Z,99087.13
2023-03-31T09:51:06.905Z,99094.31
2023-03-31T09:54:21.298Z,99095.44
2023-03-31T09:56:53.551Z,99092.41
2023-03-31T09:59:23.435Z,99095.44
2023-03-31T10:01:53.482Z,99104.56
2023-03-31T10:04:24.149Z,99119.25
2023-03-31T10:06:53.617Z,99094.13
2023-03-31T10:09:34.223Z,99043.22
2023-03-31T10:12:05.731Z,99051.50
2023-03-31T10:14:41.198Z,99062.84
2023-03-31T10:17:07.795Z,99071.41
2023-03-31T10:19:37.722Z,99069.44
2023-03-31T10:22:16.677Z,99056.97
2023-03-31T10:24:45.554Z,99062.22
2023-03-31T10:27:22.938Z,99063.84
2023-03-31T10:29:59.548Z,99050.56
2023-03-31T10:32:29.527Z,99047.13
2023-03-31T10:35:06.540Z,99028.19
2023-03-31T10:37:36.574Z,99028.34
2023-03-31T10:40:14.837Z,99033.50
2023-03-31T10:42:46.325Z,99031.63
2023-03-31T10:45:37.399Z,99027.66
2023-03-31T10:48:05.085Z,99025.47
2023-03-31T10:50:36.144Z,99024.47
2023-03-31T10:53:14.313Z,99016.88
2023-03-31T10:56:02.506Z,99024.25
2023-03-31T10:59:06.159Z,99014.47
2023-03-31T11:01:45.748Z,99025.34
2023-03-31T11:04:27.214Z,99009.53
2023-03-31T11:07:31.210Z,99011.81
2023-03-31T11:10:34.742Z,98996.50
2023-03-31T11:13:04.042Z,99010.16
2023-03-31T11:15:38.681Z,99010.19
2023-03-31T11:18:35.317Z,98989.16
2023-03-31T11:21:23.272Z,98997.50
2023-03-31T11:24:05.537Z,99001.94
2023-03-31T11:26:52.988Z,99002.47
2023-03-31T11:29:41.027Z,98987.91
2023-03-31T11:32:28.358Z,99007.81
2023-03-31T11:35:24.256Z,98991.75
2023-03-31T11:38:11.502Z,98984.91
2023-03-31T11:41:02.490Z,98988.94
2023-03-31T11:43:40.254Z,98991.88
2023-03-31T11:46:30.562Z,99002.00
2023-03-31T11:49:04.380Z,98988.88
2023-03-31T11:51:50.728Z,98984.47
2023-03-31T11:54:34.334Z,98995.56
2023-03-31T11:57:03.661Z,98986.72
2023-03-31T11:59:32.739Z,98984.47
2023-03-31T12:02:15.372Z,98970.56
2023-03-31T12:04:50.522Z,98973.34
2023-03-31T12:07:19.698Z,98962.25
2023-03-31T12:10:05.734Z,98960.69
2023-03-31T12:12:41.969Z,98951.25
2023-03-31T12:15:23.142Z,98951.38
2023-03-31T12:17:57.393Z,98955.22
2023-03-31T12:20:41.214Z,98940.78
2023-03-31T12:23:15.407Z,98948.41
2023-03-31T12:25:53.608Z,98950.03
2023-03-31T12:28:21.300Z,98943.94
2023-03-31T12:30:48.836Z,98947.53
2023-03-31T12:33:38.483Z,98943.94
2023-03-31T12:36:14.016Z,98939.16
2023-03-31T12:39:19.333Z,98935.09
2023-03-31T12:42:04.378Z,98907.63
2023-03-31T12:44:48.856Z,98903.53
2023-03-31T12:47:40.264Z,98895.41
2023-03-31T12:50:31.986Z,98903.41
2023-03-31T12:53:13.701Z,98889.41
2023-03-31T12:55:46.793Z,98909.53
2023-03-31T12:58:33.130Z,98906.88
2023-03-31T13:01:05.849Z,98900.00
2023-03-31T13:03:35.382Z,98905.25
2023-03-31T13:06:03.674Z,98889.41
2023-03-31T13:08:49.990Z,98884.25
2023-03-31T13:11:18.076Z,98894.06
2023-03-31T13:16:38.144Z,98925.97
2023-03-31T13:19:05.268Z,98886.25
2023-03-31T13:21:32.105Z,98889.50
2023-03-31T13:24:02.107Z,98884.69
2023-03-31T13:26:46.378Z,98873.97
2023-03-31T13:29:16.295Z,98908.56
2023-03-31T13:32:01.093Z,98880.19
2023-03-31T13:34:37.019Z,98865.25
2023-03-31T13:37:09.484Z,98867.41
2023-03-31T13:39:41.843Z,98878.06
2023-03-31T13:42:46.836Z,98871.00
2023-03-31T13:45:27.575Z,98901.13
2023-03-31T13:48:11.268Z,98876.50
2023-03-31T13:51:20.274Z,98881.00
2023-03-31T13:53:54.358Z,98860.34
2023-03-31T13:56:45.632Z,98857.13
2023-03-31T13:59:12.017Z,98860.75
2023-03-31T14:02:03.705Z,98879.13
2023-03-31T14:04:48.358Z,98881.97
2023-03-31T14:07:45.307Z,98912.84
2023-03-31T14:10:36.361Z,98933.53
2023-03-31T14:13:13.989Z,98942.28
2023-03-31T14:15:56.939Z,98911.31
2023-03-31T14:18:27.496Z,98905.50
2023-03-31T14:21:21.327Z,98921.81
2023-03-31T14:24:08.410Z,98897.53
2023-03-31T14:27:03.486Z,98882.41
2023-03-31T14:29:52.097Z,98866.84
2023-03-31T14:32:38.568Z,98860.88
2023-03-31T14:35:29.919Z,98843.56
2023-03-31T14:37:57.444Z,98842.41
2023-03-31T14:40:24.776Z,98844.28
2023-03-31T14:42:51.506Z,98844.47
2023-03-31T14:45:25.401Z,98823.53
2023-03-31T14:48:02.630Z,98852.69
2023-03-31T14:50:38.304Z,98838.91
2023-03-31T14:53:04.971Z,98820.44
2023-03-31T14:55:54.156Z,98817.44
2023-03-31T14:58:39.903Z,98817.75
2023-03-31T15:01:08.880Z,98811.38
2023-03-31T15:03:41.476Z,98803.97
2023-03-31T15:06:08.511Z,98813.91
2023-03-31T15:08:36.824Z,98820.97
2023-03-31T15:13:56.551Z,98819.69
2023-03-31T15:16:44.293Z,98828.63
2023-03-31T15:19:18.208Z,98805.88
2023-03-31T15:21:45.527Z,98829.81
2023-03-31T15:24:15.429Z,98828.47
2023-03-31T15:26:55.758Z,98821.88
2023-03-31T15:29:43.001Z,98848.19
2023-03-31T15:32:23.327Z,98846.34
2023-03-31T15:34:51.167Z,98855.78
2023-03-31T15:37:35.111Z,98836.34
2023-03-31T15:40:02.506Z,98835.25
2023-03-31T15:42:29.163Z,98829.91
2023-03-31T15:45:16.786Z,98843.19
2023-03-31T15:47:55.384Z,98853.13
2023-03-31T15:50:22.737Z,98826.75
2023-03-31T15:52:54.640Z,98834.53
2023-03-31T15:55:31.492Z,98840.47
2023-03-31T15:58:01.444Z,98848.28
2023-03-31T16:00:38.408Z,98888.44
2023-03-31T16:03:14.794Z,98854.69
2023-03-31T16:05:54.326Z,98864.47
2023-03-31T16:08:38.167Z,98861.84
2023-03-31T16:11:15.550Z,98878.56
2023-03-31T16:13:45.854Z,98878.13
2023-03-31T16:16:15.504Z,98873.59
2023-03-31T16:18:47.020Z,98883.28
2023-03-31T16:21:16.170Z,98891.38
2023-03-31T16:23:44.760Z,98900.44
2023-03-31T16:26:11.683Z,98883.22
2023-03-31T16:28:38.529Z,98892.16
2023-03-31T16:31:05.937Z,98894.06
2023-03-31T16:33:54.143Z,98883.94
2023-03-31T16:36:20.588Z,98873.31
2023-03-31T16:38:47.087Z,98888.53
2023-03-31T16:41:15.780Z,98877.38
2023-03-31T16:43:44.807Z,98876.91
2023-03-31T16:46:11.338Z,98874.38
2023-03-31T16:48:37.861Z,98871.38
2023-03-31T16:51:04.957Z,98878.03
2023-03-31T16:53:33.856Z,98878.91
2023-03-31T16:56:00.983Z,98880.19
2023-03-31T16:58:31.395Z,98879.59
2023-03-31T17:00:58.741Z,98897.34
2023-03-31T17:03:26.075Z,98909.59
2023-03-31T17:05:57.815Z,98904.00
2023-03-31T17:08:27.617Z,98891.25
2023-03-31T17:10:58.732Z,98906.59
2023-03-31T17:13:25.491Z,98919.00
2023-03-31T17:16:01.344Z,98887.59
2023-03-31T17:18:35.576Z,98895.19
2023-03-31T17:21:07.433Z,98906.56
2023-03-31T17:23:36.131Z,98907.09
2023-03-31T17:26:04.095Z,98899.31
2023-03-31T17:28:31.104Z,98883.94
2023-03-31T17:30:58.552Z,98903.78
2023-03-31T17:33:26.231Z,98913.47
2023-03-31T17:35:57.137Z,98905.44
2023-03-31T17:38:23.698Z,98909.84
2023-03-31T17:40:50.118Z,98902.16
2023-03-31T17:43:16.546Z,98892.16
2023-03-31T17:45:42.953Z,98904.91
2023-03-31T17:48:09.924Z,98916.16
2023-03-31T17:50:37.497Z,98894.56
2023-03-31T17:53:08.857Z,98909.06
2023-03-31T17:55:38.508Z,98912.38
2023-03-31T17:58:06.367Z,98910.81
2023-03-31T18:00:32.799Z,98930.84
2023-03-31T18:02:59.417Z,98927.84
2023-03-31T18:05:26.042Z,98934.25
2023-03-31T18:07:53.526Z,98931.50
2023-03-31T18:10:20.345Z,98952.56
2023-03-31T18:12:46.787Z,98948.47
2023-03-31T18:15:13.405Z,98957.06
2023-03-31T18:17:39.971Z,98959.00
2023-03-31T18:20:06.897Z,98944.91
2023-03-31T18:22:33.295Z,98953.75
2023-03-31T18:24:59.841Z,98957.13
2023-03-31T18:27:26.396Z,98953.56
2023-03-31T18:29:52.851Z,98982.13
2023-03-31T18:32:19.823Z,98971.13
2023-03-31T18:34:46.901Z,98980.00
2023-03-31T18:37:13.543Z,98978.38
2023-03-31T18:39:40.001Z,98969.28
2023-03-31T18:42:06.660Z,98965.94
2023-03-31T18:44:34.720Z,98956.00
2023-03-31T18:47:01.758Z,98960.13
2023-03-31T18:49:28.303Z,98953.50
2023-03-31T18:51:54.848Z,98964.53
2023-03-31T18:54:21.832Z,98971.69
2023-03-31T18:56:48.252Z,98974.97
2023-03-31T18:59:14.770Z,98962.84
2023-03-31T19:01:41.511Z,98955.13
2023-03-31T19:04:09.069Z,98963.38
2023-03-31T19:06:35.757Z,98957.34
2023-03-31T19:09:02.232Z,98954.84
2023-03-31T19:11:28.708Z,98965.59
2023-03-31T19:13:55.950Z,98962.28
2023-03-31T19:16:24.539Z,98965.63
2023-03-31T19:18:51.301Z,98960.38
2023-03-31T19:21:17.762Z,98956.22
2023-03-31T19:23:44.355Z,98944.66
2023-03-31T19:26:15.601Z,98950.72
2023-03-31T19:28:42.452Z,98955.94
2023-03-31T19:31:11.027Z,98964.81
2023-03-31T19:33:37.642Z,98954.03
2023-03-31T19:36:04.328Z,98965.34
2023-03-31T19:38:32.581Z,98962.59
2023-03-31T19:40:59.945Z,98947.94
2023-03-31T19:43:27.622Z,98956.81
2023-03-31T19:45:57.492Z,98960.09
2023-03-31T19:48:26.193Z,98962.34
2023-03-31T19:50:56.301Z,98948.25
2023-03-31T19:53:23.079Z,98953.50
2023-03-31T19:55:59.531Z,98948.53
2023-03-31T19:58:27.404Z,98951.28
2023-03-31T20:00:55.274Z,98959.28
2023-03-31T20:03:23.601Z,98952.41
2023-03-31T20:05:51.845Z,98947.44
2023-03-31T20:08:18.457Z,98945.47
2023-03-31T20:10:45.035Z,98951.00
2023-03-31T20:13:11.950Z,98954.31
2023-03-31T20:15:39.759Z,98950.44
2023-03-31T20:18:07.380Z,98948.53
2023-03-31T20:20:35.136Z,98941.06
2023-03-31T20:23:01.594Z,98940.25
2023-03-31T20:25:28.192Z,98948.53
2023-03-31T20:27:54.642Z,98941.09
2023-03-31T20:30:21.187Z,98933.06
2023-03-31T20:32:47.646Z,98938.59
2023-03-31T20:35:14.183Z,98943.81
2023-03-31T20:37:40.677Z,98941.06
2023-03-31T20:40:07.743Z,98933.34
2023-03-31T20:42:35.418Z,98946.06
2023-03-31T20:45:01.939Z,98947.97
2023-03-31T20:47:28.423Z,98949.09
2023-03-31T20:49:54.881Z,98949.91
2023-03-31T20:52:21.299Z,98949.09
2023-03-31T20:54:47.784Z,98943.56
2023-03-31T20:57:14.232Z,98954.06
2023-03-31T20:59:40.734Z,98944.38
2023-03-31T21:02:07.682Z,98945.19
2023-03-31T21:04:34.251Z,98954.31
2023-03-31T21:07:01.043Z,98952.13
2023-03-31T21:09:27.506Z,98946.88
2023-03-31T21:11:53.956Z,98945.78
2023-03-31T21:14:20.490Z,98955.72
2023-03-31T21:16:47.066Z,98950.19
2023-03-31T21:19:13.675Z,98953.22
2023-03-31T21:21:41.416Z,98943.00
2023-03-31T21:24:11.237Z,98936.38
2023-03-31T21:26:37.800Z,98952.41
2023-03-31T21:29:04.345Z,98944.38
2023-03-31T21:31:31.076Z,98943.56
2023-03-31T21:33:57.890Z,98950.44
2023-03-31T21:36:24.970Z,98937.22
2023-03-31T21:38:53.483Z,98933.63
2023-03-31T21:41:23.999Z,98941.34
2023-03-31T21:43:51.313Z,98925.34
2023-03-31T21:46:20.332Z,98936.09
2023-03-31T21:48:50.227Z,98922.31
2023-03-31T21:51:18.298Z,98927.25
2023-03-31T21:53:44.936Z,98935.28
2023-03-31T21:56:11.385Z,98923.66
2023-03-31T21:58:37.859Z,98927.81
2023-03-31T22:01:05.124Z,98924.22
2023-03-31T22:03:34.384Z,98929.75
2023-03-31T22:06:07.156Z,98939.13
2023-03-31T22:08:36.541Z,98931.66
2023-03-31T22:11:04.342Z,98936.38
2023-03-31T22:13:30.941Z,98934.72
2023-03-31T22:15:58.682Z,98936.38
2023-03-31T22:18:25.341Z,98931.38
2023-03-31T22:20:52.362Z,98944.38
2023-03-31T22:23:20.830Z,98936.91
2023-03-31T22:25:48.110Z,98934.16
2023-03-31T22:28:15.589Z,98947.69
2023-03-31T22:30:42.860Z,98942.16
2023-03-31T22:33:09.342Z,98953.50
2023-03-31T22:35:35.874Z,98951.25
2023-03-31T22:38:03.324Z,98947.41
2023-03-31T22:40:30.227Z,98956.25
2023-03-31T22:42:58.406Z,98946.28
2023-03-31T22:45:25.357Z,98933.59
2023-03-31T22:47:51.846Z,98940.75
2023-03-31T22:50:18.474Z,98925.31
2023-03-31T22:52:46.009Z,98938.56
2023-03-31T22:55:12.450Z,98937.19
2023-03-31T22:57:39.324Z,98941.31
2023-03-31T23:00:06.550Z,98935.78
2023-03-31T23:02:33.194Z,98941.88
2023-03-31T23:04:59.590Z,98947.38
2023-03-31T23:07:26.089Z,98952.91
2023-03-31T23:09:52.573Z,98939.63
2023-03-31T23:12:18.957Z,98939.66
2023-03-31T23:14:45.359Z,98948.50
2023-03-31T23:17:12.076Z,98948.19
2023-03-31T23:19:38.783Z,98960.38
2023-03-31T23:22:06.064Z,98953.44
2023-03-31T23:24:32.889Z,98947.94
2023-03-31T23:26:59.463Z,98958.97
2023-03-31T23:29:26.057Z,98952.91
2023-03-31T23:31:52.546Z,98954.25
2023-03-31T23:34:19.005Z,98953.44
2023-03-31T23:36:45.439Z,98946.53
2023-03-31T23:39:11.856Z,98942.97
2023-03-31T23:41:38.428Z,98947.66
2023-03-31T23:44:05.342Z,98941.28
2023-03-31T23:46:33.447Z,98945.69
2023-03-31T23:49:01.745Z,98938.53
2023-03-31T23:51:28.161Z,98934.09
2023-03-31T23:53:54.588Z,98938.50
2023-03-31T23:56:21.613Z,98950.09
2023-03-31T23:58:48.036Z,98953.41
